Time;durP1;ratioP1;P1;durP2;ratioP2;P2;SDS_P1;SDS_P2;PMS_P1;PMS_P2;Temp;Humidity;BMP_temperature;BMP_pressure;BME280_temperature;BME280_humidity;BME280_pressure;Samples;Min_cycle;Max_cycle;Signal;HPM_P1;HPM_P2
2022/10/24 00:01:58;;;;;;;3.33;0.43;;;;;;;15.76;76.53;100076.28;5071815;29;20165;-85
2022/10/24 00:04:29;;;;;;;0.98;0.98;;;;;;;15.71;76.80;100082.72;5090081;28;20452;-83
2022/10/24 00:06:59;;;;;;;1.55;1.20;;;;;;;15.72;76.65;100075.63;5102130;23;20070;-83
2022/10/24 00:09:30;;;;;;;1.98;1.80;;;;;;;15.67;76.84;100082.97;5119474;28;20040;-84
2022/10/24 00:12:02;;;;;;;0.28;0.28;;;;;;;15.70;76.63;100088.09;5119305;28;20321;-84
2022/10/24 00:14:34;;;;;;;0.57;0.57;;;;;;;15.72;76.68;100088.84;5121778;28;20039;-84
2022/10/24 00:17:06;;;;;;;0.93;0.93;;;;;;;15.66;77.16;100097.16;5121473;28;20061;-83
2022/10/24 00:19:36;;;;;;;0.40;0.40;;;;;;;15.68;76.70;100088.16;5107919;28;20090;-83
2022/10/24 00:22:07;;;;;;;0.65;0.65;;;;;;;15.60;77.50;100077.19;5124705;28;20043;-83
2022/10/24 00:24:37;;;;;;;0.40;0.40;;;;;;;15.65;76.98;100074.28;5125513;28;20702;-83
2022/10/24 00:27:08;;;;;;;0.30;0.30;;;;;;;15.66;76.99;100070.69;5128535;28;20028;-83
2022/10/24 00:29:39;;;;;;;0.75;0.75;;;;;;;15.67;77.12;100070.59;5104708;28;20047;-83
2022/10/24 00:32:09;;;;;;;1.48;0.93;;;;;;;15.64;76.82;100072.56;5119798;28;20046;-83
2022/10/24 00:34:40;;;;;;;0.50;0.50;;;;;;;15.63;76.66;100071.75;5120379;28;20054;-83
2022/10/24 00:37:11;;;;;;;1.27;1.17;;;;;;;15.56;76.92;100071.22;5102280;28;20078;-83
2022/10/24 00:39:41;;;;;;;0.43;0.43;;;;;;;15.58;76.64;100066.72;5115684;28;20054;-83
2022/10/24 00:42:12;;;;;;;0.40;0.40;;;;;;;15.65;76.41;100058.41;5118999;29;20034;-83
2022/10/24 00:44:44;;;;;;;3.85;1.95;;;;;;;15.66;76.36;100071.53;5099623;28;20071;-83
2022/10/24 00:47:21;;;;;;;20.27;0.77;;;;;;;15.64;76.47;100059.34;5122815;28;20036;-83
2022/10/24 00:50:01;;;;;;;0.45;0.45;;;;;;;15.67;76.22;100060.03;5102501;28;20050;-83
2022/10/24 00:52:39;;;;;;;0.77;0.77;;;;;;;15.54;76.44;100051.97;5116864;29;20489;-83
2022/10/24 00:55:11;;;;;;;2.75;0.75;;;;;;;15.60;76.35;100045.47;5101486;29;20540;-83
2022/10/24 00:57:47;;;;;;;0.20;0.20;;;;;;;15.60;76.32;100039.34;5117891;28;20462;-83
2022/10/24 01:00:25;;;;;;;1.45;1.08;;;;;;;15.53;76.49;100044.13;5122712;28;20042;-83
2022/10/24 01:02:56;;;;;;;0.40;0.40;;;;;;;15.59;76.42;100043.75;5116902;28;20075;-83
2022/10/24 01:05:39;;;;;;;0.20;0.20;;;;;;;15.44;76.65;100045.53;5120472;28;20123;-83
2022/10/24 01:08:36;;;;;;;0.50;0.50;;;;;;;15.56;76.63;100051.88;5118885;28;20099;-83
2022/10/24 01:11:25;;;;;;;0.20;0.20;;;;;;;15.59;76.52;100038.47;5120561;28;20105;-82
2022/10/24 01:14:10;;;;;;;0.63;0.63;;;;;;;15.57;76.32;100045.66;5120338;28;20031;-83
2022/10/24 01:16:47;;;;;;;4.28;2.50;;;;;;;15.59;76.18;100035.81;5104325;28;20151;-83
2022/10/24 01:19:39;;;;;;;6.78;2.47;;;;;;;15.64;75.95;100044.34;5134378;28;20054;-82
2022/10/24 01:22:16;;;;;;;1.88;1.60;;;;;;;15.54;76.27;100024.69;5142984;28;20030;-82
2022/10/24 01:25:00;;;;;;;0.90;0.77;;;;;;;15.56;76.15;100025.44;5146964;28;20126;-83
2022/10/24 01:27:59;;;;;;;0.43;0.43;;;;;;;15.60;75.88;100023.47;5142660;28;20042;-83
2022/10/24 01:31:01;;;;;;;0.82;0.73;;;;;;;15.51;76.03;100024.84;5126747;28;20103;-83
2022/10/24 01:33:39;;;;;;;2.05;0.70;;;;;;;15.45;75.67;100010.22;5126333;28;20520;-83
2022/10/24 01:36:15;;;;;;;0.93;0.93;;;;;;;15.49;75.32;100024.13;5127066;28;20035;-83
2022/10/24 01:38:59;;;;;;;0.52;0.52;;;;;;;15.53;75.37;100015.03;5121977;28;20118;-83
2022/10/24 01:41:30;;;;;;;0.30;0.30;;;;;;;15.46;75.38;100016.34;5124302;29;20520;-83
2022/10/24 01:44:12;;;;;;;1.70;1.30;;;;;;;15.47;75.50;100026.00;5121817;28;20035;-82
2022/10/24 01:46:51;;;;;;;1.60;1.45;;;;;;;15.48;75.10;100012.66;5122878;28;20063;-83
2022/10/24 01:49:28;;;;;;;7.07;1.60;;;;;;;15.45;75.16;99998.78;5121372;28;20035;-83
2022/10/24 01:52:02;;;;;;;0.45;0.45;;;;;;;15.41;75.31;99985.72;5121159;29;20036;-83
2022/10/24 01:54:34;;;;;;;0.90;0.90;;;;;;;15.38;75.08;99999.16;5123991;28;20039;-83
2022/10/24 01:57:05;;;;;;;0.35;0.35;;;;;;;15.40;74.95;99986.69;5121013;28;20059;-83
2022/10/24 01:59:40;;;;;;;2.20;1.17;;;;;;;15.37;74.72;99989.50;5140214;28;20035;-82
2022/10/24 02:02:25;;;;;;;0.63;0.63;;;;;;;15.35;74.75;99980.81;5147659;28;20485;-82
2022/10/24 02:04:56;;;;;;;7.28;2.17;;;;;;;15.46;74.49;99984.63;5136961;28;20094;-83
2022/10/24 02:07:29;;;;;;;0.30;0.30;;;;;;;15.43;73.57;99981.22;5154441;28;20062;-83
2022/10/24 02:10:06;;;;;;;0.40;0.40;;;;;;;15.35;73.93;99977.34;5143802;28;20130;-82
2022/10/24 02:12:43;;;;;;;0.40;0.40;;;;;;;15.40;74.02;99976.13;5161874;28;20045;-83
2022/10/24 02:15:20;;;;;;;0.30;0.30;;;;;;;15.43;72.86;99986.50;5131834;28;20019;-82
2022/10/24 02:17:52;;;;;;;0.25;0.25;;;;;;;15.38;72.49;99980.66;5160219;28;20512;-82
2022/10/24 02:20:38;;;;;;;0.32;0.32;;;;;;;15.47;73.53;99991.63;5142942;28;20034;-83
2022/10/24 02:23:17;;;;;;;0.28;0.28;;;;;;;15.40;73.17;99980.53;5145476;28;20066;-83
2022/10/24 02:25:53;;;;;;;0.65;0.65;;;;;;;15.41;72.37;99980.44;5140838;28;20559;-82
2022/10/24 02:28:30;;;;;;;0.60;0.60;;;;;;;15.35;71.10;99983.47;5143246;28;20336;-83
2022/10/24 02:31:11;;;;;;;0.35;0.35;;;;;;;15.42;72.03;99979.50;5143330;28;20066;-83
2022/10/24 02:33:43;;;;;;;0.30;0.30;;;;;;;15.37;72.39;99976.31;5121202;28;20501;-83
2022/10/24 02:36:20;;;;;;;1.00;0.50;;;;;;;15.33;72.02;99974.75;5122870;28;20042;-83
2022/10/24 02:38:54;;;;;;;0.77;0.77;;;;;;;15.34;73.08;99976.47;5119981;28;20172;-83
2022/10/24 02:41:27;;;;;;;;;;;;;;;15.40;71.45;99985.84;5121646;28;20126;-83
2022/10/24 02:44:00;;;;;;;0.88;0.75;;;;;;;15.47;71.74;99978.41;5118932;28;19968;-82
2022/10/24 02:46:33;;;;;;;0.20;0.20;;;;;;;15.37;71.86;99972.81;5123825;28;20043;-81
2022/10/24 02:49:04;;;;;;;0.20;0.20;;;;;;;15.35;71.29;99962.31;5152827;28;20032;-83
2022/10/24 02:51:38;;;;;;;0.40;0.40;;;;;;;15.34;71.66;99957.97;5112729;29;20023;-83
2022/10/24 02:54:10;;;;;;;1.67;1.00;;;;;;;15.32;71.36;99964.28;5132801;28;20046;-83
2022/10/24 02:56:45;;;;;;;0.30;0.30;;;;;;;15.36;71.88;99953.44;5134437;29;20043;-83
2022/10/24 02:59:16;;;;;;;0.55;0.55;;;;;;;15.35;71.07;99967.59;5134248;28;20119;-83
2022/10/24 03:01:46;;;;;;;0.35;0.35;;;;;;;15.43;71.09;99970.63;5142180;28;20295;-84
2022/10/24 03:04:17;;;;;;;0.25;0.25;;;;;;;15.34;71.11;99967.69;5125509;28;20060;-82
2022/10/24 03:06:47;;;;;;;0.45;0.45;;;;;;;15.40;70.56;99968.19;5135017;28;20045;-83
2022/10/24 03:09:18;;;;;;;0.30;0.30;;;;;;;15.33;70.76;99958.91;5136546;28;20075;-84
2022/10/24 03:11:49;;;;;;;2.85;1.95;;;;;;;15.40;70.76;99964.69;5132754;28;20036;-84
2022/10/24 03:14:19;;;;;;;0.30;0.30;;;;;;;15.44;70.57;99966.22;5134950;28;20028;-84
2022/10/24 03:16:50;;;;;;;0.20;0.20;;;;;;;15.43;70.89;99967.16;5137299;29;20046;-84
2022/10/24 03:19:20;;;;;;;0.30;0.30;;;;;;;15.43;69.67;99968.00;5138165;28;20045;-84
2022/10/24 03:21:51;;;;;;;0.30;0.30;;;;;;;15.37;70.56;99967.53;5154758;28;20091;-84
2022/10/24 03:24:21;;;;;;;0.30;0.30;;;;;;;15.36;71.46;99981.69;5158557;28;20024;-84
2022/10/24 03:26:52;;;;;;;0.40;0.40;;;;;;;15.35;71.21;99967.59;5141587;28;20035;-84
2022/10/24 03:29:22;;;;;;;0.30;0.30;;;;;;;15.32;70.83;99973.09;5119622;28;20039;-84
2022/10/24 03:31:53;;;;;;;1.48;0.47;;;;;;;15.27;70.30;99967.19;5160294;28;20037;-84
2022/10/24 03:34:23;;;;;;;0.30;0.30;;;;;;;15.34;71.08;99971.19;5143507;28;20022;-85
2022/10/24 03:36:54;;;;;;;1.90;1.25;;;;;;;15.36;70.98;99974.59;5143096;28;20034;-84
2022/10/24 03:39:24;;;;;;;0.30;0.30;;;;;;;15.40;69.96;99972.63;5135859;28;20027;-83
2022/10/24 03:41:55;;;;;;;0.20;0.20;;;;;;;15.47;70.36;99971.31;5107222;28;20039;-82
2022/10/24 03:44:26;;;;;;;0.20;0.20;;;;;;;15.41;70.41;99961.94;5130490;28;20020;-82
2022/10/24 03:46:56;;;;;;;0.25;0.25;;;;;;;15.39;69.61;99968.28;5136323;28;20027;-82
2022/10/24 03:49:27;;;;;;;0.52;0.52;;;;;;;15.36;70.32;99966.66;5129368;28;20043;-83
2022/10/24 03:51:58;;;;;;;0.20;0.20;;;;;;;15.45;69.62;99965.28;5134338;28;20032;-83
2022/10/24 03:54:28;;;;;;;0.50;0.50;;;;;;;15.46;69.03;99961.66;5132417;28;20107;-82
2022/10/24 03:56:59;;;;;;;0.55;0.55;;;;;;;15.46;68.63;99966.13;5111642;28;20103;-83
2022/10/24 03:59:29;;;;;;;0.70;0.70;;;;;;;15.48;68.54;99962.44;5108874;28;20043;-84
2022/10/24 04:02:01;;;;;;;0.20;0.20;;;;;;;15.43;69.26;99968.00;5109350;28;20039;-82
2022/10/24 04:04:32;;;;;;;0.30;0.30;;;;;;;15.41;69.57;99961.94;5135212;28;20035;-83
2022/10/24 04:07:04;;;;;;;0.20;0.20;;;;;;;15.41;68.87;99961.09;5113661;29;20027;-83
2022/10/24 04:09:35;;;;;;;0.20;0.20;;;;;;;15.39;69.29;99958.56;5123480;28;20039;-82
2022/10/24 04:12:05;;;;;;;0.25;0.25;;;;;;;15.54;69.00;99964.72;5121931;28;20398;-84
2022/10/24 04:14:36;;;;;;;0.20;0.20;;;;;;;15.45;68.84;99960.00;5131061;28;20040;-85
2022/10/24 04:17:06;;;;;;;0.40;0.40;;;;;;;15.38;68.92;99969.22;5115726;28;20031;-85
2022/10/24 04:19:37;;;;;;;0.50;0.50;;;;;;;15.40;69.04;99964.69;5097249;28;20098;-83
2022/10/24 04:22:07;;;;;;;0.30;0.30;;;;;;;15.43;68.51;99968.00;5117704;28;20035;-83
2022/10/24 04:24:38;;;;;;;0.20;0.20;;;;;;;15.53;67.47;99981.53;5116379;28;20044;-84
2022/10/24 04:27:09;;;;;;;4.90;1.08;;;;;;;15.42;68.10;99979.50;5113202;29;20058;-84
2022/10/24 04:29:39;;;;;;;0.98;0.95;;;;;;;15.45;67.95;99983.78;5096701;28;20725;-83
2022/10/24 04:32:10;;;;;;;1.55;0.75;;;;;;;15.46;68.03;99987.28;5130952;28;20051;-84
2022/10/24 04:34:40;;;;;;;0.63;0.63;;;;;;;15.44;67.61;99982.09;5112392;28;20583;-83
2022/10/24 04:37:11;;;;;;;0.28;0.28;;;;;;;15.43;68.02;99975.94;5119104;28;20099;-84
2022/10/24 04:39:41;;;;;;;0.30;0.30;;;;;;;15.46;67.48;99989.91;5112491;28;20117;-85
2022/10/24 04:42:12;;;;;;;0.25;0.25;;;;;;;15.43;68.39;99991.78;5114262;29;20042;-84
2022/10/24 04:44:42;;;;;;;0.20;0.20;;;;;;;15.46;68.33;99989.91;5114148;28;20563;-86
2022/10/24 04:47:13;;;;;;;0.20;0.20;;;;;;;15.52;66.66;100001.00;5102557;28;20575;-86
2022/10/24 04:49:43;;;;;;;0.77;0.77;;;;;;;15.45;67.93;99993.50;5117993;28;20043;-85
2022/10/24 04:52:14;;;;;;;0.45;0.45;;;;;;;15.38;67.65;99999.16;5103705;29;20039;-85
2022/10/24 04:54:44;;;;;;;0.20;0.20;;;;;;;15.40;67.88;99997.28;5133343;28;20054;-85
2022/10/24 04:57:15;;;;;;;0.30;0.30;;;;;;;15.40;69.24;100002.56;5115660;29;20045;-84
2022/10/24 04:59:45;;;;;;;0.77;0.75;;;;;;;15.45;68.85;99994.38;5096711;28;20090;-85
2022/10/24 05:02:16;;;;;;;0.47;0.47;;;;;;;15.42;68.39;100005.94;5109890;28;20581;-85
2022/10/24 05:04:46;;;;;;;0.40;0.40;;;;;;;15.35;68.08;100009.91;5095585;28;20034;-85
2022/10/24 05:07:19;;;;;;;0.90;0.82;;;;;;;15.44;68.14;100005.88;5099867;28;20513;-85
2022/10/24 05:09:50;;;;;;;1.65;0.98;;;;;;;15.39;69.16;100002.63;5110632;28;20047;-85
2022/10/24 05:12:20;;;;;;;0.30;0.30;;;;;;;15.38;69.26;100008.84;5121262;28;20023;-85
2022/10/24 05:14:50;;;;;;;1.23;1.13;;;;;;;15.46;69.03;100006.59;5132634;28;20031;-85
2022/10/24 05:17:21;;;;;;;0.30;0.30;;;;;;;15.39;68.75;100014.06;5137507;29;20095;-86
2022/10/24 05:19:52;;;;;;;0.50;0.50;;;;;;;15.46;68.55;100005.78;5151160;28;20115;-85
2022/10/24 05:22:23;;;;;;;0.40;0.40;;;;;;;15.49;68.91;100009.09;5135580;28;20082;-85
2022/10/24 05:24:54;;;;;;;1.38;1.27;;;;;;;15.41;69.17;100019.25;5111064;28;20311;-85
2022/10/24 05:27:24;;;;;;;0.95;0.95;;;;;;;15.38;69.19;100015.00;5118650;28;20038;-84
2022/10/24 05:29:55;;;;;;;0.28;0.28;;;;;;;15.35;69.55;100020.47;5117416;28;20039;-85
2022/10/24 05:32:25;;;;;;;1.85;1.75;;;;;;;15.37;68.94;100017.75;5128102;28;20482;-84
2022/10/24 05:34:56;;;;;;;0.60;0.60;;;;;;;15.34;69.02;100021.41;5117713;28;20067;-85
2022/10/24 05:37:26;;;;;;;0.20;0.20;;;;;;;15.32;68.73;100019.78;5116806;28;20083;-84
2022/10/24 05:39:57;;;;;;;1.45;1.27;;;;;;;15.38;69.39;100028.22;5119723;28;20056;-85
2022/10/24 05:42:27;;;;;;;0.20;0.20;;;;;;;15.36;68.23;100038.03;5130857;28;20489;-85
2022/10/24 05:44:58;;;;;;;0.30;0.30;;;;;;;15.29;69.09;100025.28;5098540;28;20047;-85
2022/10/24 05:47:28;;;;;;;0.20;0.20;;;;;;;15.21;68.96;100031.81;5116884;28;20053;-85
2022/10/24 05:49:58;;;;;;;0.88;0.47;;;;;;;15.27;69.16;100028.00;5115215;28;20071;-85
2022/10/24 05:52:29;;;;;;;0.30;0.30;;;;;;;15.23;68.62;100031.75;5114461;29;20039;-84
2022/10/24 05:54:59;;;;;;;0.55;0.55;;;;;;;15.25;69.23;100035.16;5114426;28;20043;-85
2022/10/24 05:57:30;;;;;;;0.98;0.98;;;;;;;15.29;69.54;100043.78;5130290;28;20039;-84
2022/10/24 06:00:01;;;;;;;0.20;0.20;;;;;;;15.28;69.49;100045.56;5109723;28;20063;-85
2022/10/24 06:02:31;;;;;;;0.20;0.20;;;;;;;15.25;69.88;100043.94;5110986;28;20474;-85
2022/10/24 06:05:02;;;;;;;0.20;0.20;;;;;;;15.21;69.62;100044.22;5110387;28;20089;-85
2022/10/24 06:07:34;;;;;;;1.70;1.55;;;;;;;15.29;69.93;100038.50;5109049;28;20027;-85
2022/10/24 06:10:05;;;;;;;0.32;0.32;;;;;;;15.30;69.21;100046.31;5114470;28;20063;-85
2022/10/24 06:12:36;;;;;;;0.40;0.40;;;;;;;15.23;69.44;100048.44;5098972;29;20218;-84
2022/10/24 06:15:07;;;;;;;0.60;0.60;;;;;;;15.27;69.66;100046.50;5097415;28;20362;-85
2022/10/24 06:17:38;;;;;;;5.50;0.40;;;;;;;15.31;69.82;100045.38;5100732;28;20291;-84
2022/10/24 06:20:09;;;;;;;0.20;0.20;;;;;;;15.24;69.80;100033.47;5127570;23;20085;-87
2022/10/24 06:22:40;;;;;;;0.30;0.30;;;;;;;15.20;69.90;100039.84;5110826;28;20253;-87
2022/10/24 06:25:12;;;;;;;0.30;0.30;;;;;;;15.25;69.71;100051.00;5116947;28;20039;-88
2022/10/24 06:27:42;;;;;;;5.35;1.80;;;;;;;15.22;69.47;100061.75;5106511;28;20497;-88
2022/10/24 06:30:13;;;;;;;0.30;0.30;;;;;;;15.20;69.70;100061.00;5097074;28;20036;-87
2022/10/24 06:32:43;;;;;;;0.38;0.38;;;;;;;15.19;69.77;100076.00;5111531;28;20047;-87
2022/10/24 06:35:14;;;;;;;0.43;0.43;;;;;;;15.24;69.65;100065.19;5094892;29;20039;-88
2022/10/24 06:37:45;;;;;;;2.50;1.42;;;;;;;15.22;70.11;100073.19;5112584;28;20502;-88
2022/10/24 06:40:17;;;;;;;0.32;0.32;;;;;;;15.23;69.90;100071.41;5098011;29;20023;-88
2022/10/24 06:42:47;;;;;;;0.30;0.30;;;;;;;15.16;69.58;100070.88;5096233;28;20128;-87
2022/10/24 06:45:20;;;;;;;0.25;0.25;;;;;;;15.24;69.61;100070.47;5096631;29;20016;-88
2022/10/24 06:47:51;;;;;;;0.40;0.40;;;;;;;15.23;69.69;100084.63;5110620;28;20122;-88
2022/10/24 06:50:22;;;;;;;0.30;0.30;;;;;;;15.19;69.79;100093.63;5067395;29;20091;-88
2022/10/24 06:52:52;;;;;;;0.38;0.38;;;;;;;15.18;70.11;100082.22;5118689;28;20110;-88
2022/10/24 06:55:22;;;;;;;0.35;0.35;;;;;;;15.26;69.56;100092.34;5117318;28;20123;-87
2022/10/24 06:57:53;;;;;;;0.25;0.25;;;;;;;15.22;68.17;100083.75;5112149;28;20126;-87
2022/10/24 07:00:23;;;;;;;0.45;0.45;;;;;;;15.11;69.13;100091.44;5097768;29;20020;-88
2022/10/24 07:02:54;;;;;;;0.20;0.20;;;;;;;15.11;69.23;100102.84;5112922;28;20319;-88
2022/10/24 07:05:24;;;;;;;0.30;0.30;;;;;;;15.17;69.58;100098.16;5100764;29;20055;-88
2022/10/24 07:07:55;;;;;;;0.80;0.80;;;;;;;15.20;69.08;100105.91;5112396;28;20040;-87
2022/10/24 07:10:25;;;;;;;0.35;0.35;;;;;;;15.22;69.42;100111.97;5120219;29;20312;-88
2022/10/24 07:12:56;;;;;;;0.63;0.63;;;;;;;15.25;69.03;100123.22;5096114;28;20141;-86
2022/10/24 07:15:26;;;;;;;0.65;0.63;;;;;;;15.21;69.90;100119.03;5095371;29;20098;-87
2022/10/24 07:17:57;;;;;;;0.30;0.30;;;;;;;15.26;70.04;100116.13;5137047;28;20099;-87
2022/10/24 07:20:27;;;;;;;0.20;0.20;;;;;;;15.27;69.89;100123.13;5138055;28;20032;-86
2022/10/24 07:22:58;;;;;;;0.20;0.20;;;;;;;15.23;69.84;100118.97;5108641;29;20114;-88
2022/10/24 07:25:28;;;;;;;0.30;0.30;;;;;;;15.25;70.00;100119.72;5104995;29;20062;-88
2022/10/24 07:27:58;;;;;;;0.35;0.35;;;;;;;15.28;69.76;100119.56;5115228;28;20218;-87
2022/10/24 07:30:29;;;;;;;1.25;1.17;;;;;;;15.28;69.33;100124.84;5079687;29;20024;-87
2022/10/24 07:32:59;;;;;;;0.20;0.20;;;;;;;15.26;69.75;100132.00;5116730;28;20046;-87
2022/10/24 07:35:30;;;;;;;0.68;0.63;;;;;;;15.28;69.90;100132.75;5123212;28;20581;-88
2022/10/24 07:38:00;;;;;;;0.30;0.30;;;;;;;15.34;69.05;100135.06;5118190;28;20194;-87
2022/10/24 07:40:31;;;;;;;0.28;0.28;;;;;;;15.33;69.94;100138.63;5118039;28;20032;-86
2022/10/24 07:43:01;;;;;;;1.77;0.90;;;;;;;15.36;69.50;100149.03;5115624;28;20063;-88
2022/10/24 07:45:32;;;;;;;0.25;0.25;;;;;;;15.29;69.30;100147.69;5118486;28;20027;-87
2022/10/24 07:48:04;;;;;;;0.25;0.25;;;;;;;15.39;69.03;100151.53;5115659;28;20040;-88
2022/10/24 07:50:44;;;;;;;0.40;0.40;;;;;;;15.38;69.45;100148.94;5116244;29;20048;-88
2022/10/24 07:53:15;;;;;;;0.20;0.20;;;;;;;15.42;68.02;100158.44;5127252;28;20071;-88
2022/10/24 07:55:45;;;;;;;1.60;1.05;;;;;;;15.57;68.41;100152.25;5137534;28;20040;-88
2022/10/24 07:58:16;;;;;;;0.30;0.30;;;;;;;15.54;68.34;100152.44;5110270;28;20053;-88
2022/10/24 08:00:46;;;;;;;0.40;0.40;;;;;;;15.60;68.03;100155.69;5114536;28;20054;-88
2022/10/24 08:03:16;;;;;;;0.30;0.30;;;;;;;15.63;67.23;100145.78;5098838;28;20584;-88
2022/10/24 08:05:47;;;;;;;0.28;0.28;;;;;;;15.67;67.08;100136.72;5097464;28;20130;-88
2022/10/24 08:08:17;;;;;;;0.30;0.30;;;;;;;15.70;67.76;100141.00;5110180;28;20158;-88
2022/10/24 08:10:48;;;;;;;0.30;0.30;;;;;;;15.71;67.06;100143.53;5097191;28;20305;-88
2022/10/24 08:13:18;;;;;;;0.20;0.20;;;;;;;15.76;66.81;100139.75;5095526;28;20139;-88
2022/10/24 08:15:49;;;;;;;1.88;0.55;;;;;;;15.84;66.88;100140.19;5096631;29;20044;-89
2022/10/24 08:18:19;;;;;;;0.32;0.32;;;;;;;15.83;65.92;100151.69;5101523;28;20134;-89
2022/10/24 08:21:04;;;;;;;0.82;0.40;;;;;;;15.86;66.53;100146.25;5131302;28;20051;-88
2022/10/24 08:23:36;;;;;;;0.75;0.75;;;;;;;15.79;67.11;100140.44;5091459;28;20163;-88
2022/10/24 08:26:08;;;;;;;0.33;0.33;;;;;;;15.80;66.20;100143.94;5113092;29;20032;-88
2022/10/24 08:28:39;;;;;;;1.13;0.73;;;;;;;15.88;66.15;100141.75;5136111;28;20082;-88
2022/10/24 08:31:16;;;;;;;0.20;0.20;;;;;;;16.02;65.15;100155.00;5074537;29;20642;-88
2022/10/24 08:33:49;;;;;;;2.25;0.63;;;;;;;15.95;65.27;100150.19;5097696;28;20445;-88
2022/10/24 08:36:24;;;;;;;;;;;;;;;16.03;65.81;100158.53;5129851;28;20032;-89
2022/10/24 08:38:55;;;;;;;0.20;0.20;;;;;;;16.01;65.62;100140.06;5107223;28;20400;-88
2022/10/24 08:41:31;;;;;;;1.75;1.05;;;;;;;15.99;65.47;100157.81;5114596;29;20087;-87
2022/10/24 08:44:03;;;;;;;0.77;0.77;;;;;;;16.09;65.78;100152.84;5099664;29;20039;-87
2022/10/24 08:46:47;;;;;;;0.30;0.30;;;;;;;16.07;65.80;100167.13;5101353;29;20043;-88
2022/10/24 08:49:30;;;;;;;0.30;0.30;;;;;;;16.16;65.21;100158.63;5105017;28;20043;-86
2022/10/24 08:52:10;;;;;;;0.20;0.20;;;;;;;16.23;65.49;100159.09;5122128;29;20142;-87
2022/10/24 08:54:43;;;;;;;0.20;0.20;;;;;;;16.18;65.70;100157.59;5105028;29;20193;-88
2022/10/24 08:57:28;;;;;;;0.68;0.68;;;;;;;16.26;64.62;100159.78;5116845;28;20074;-87
2022/10/24 09:00:03;;;;;;;0.20;0.20;;;;;;;16.34;65.22;100161.97;5112769;29;20635;-87
2022/10/24 09:02:38;;;;;;;0.20;0.20;;;;;;;16.36;65.12;100166.22;5113572;29;20035;-87
2022/10/24 09:05:35;;;;;;;0.30;0.30;;;;;;;16.36;64.75;100162.75;5131047;28;20039;-87
2022/10/24 09:08:37;;;;;;;0.57;0.57;;;;;;;16.32;66.08;100171.81;5110540;28;20047;-88
2022/10/24 09:11:14;;;;;;;1.65;0.70;;;;;;;16.36;64.74;100158.28;5092986;29;20036;-86
2022/10/24 09:13:45;;;;;;;0.68;0.68;;;;;;;16.42;65.33;100180.91;5090941;29;20098;-87
2022/10/24 09:16:19;;;;;;;0.30;0.30;;;;;;;16.49;65.18;100173.41;5110260;28;20036;-87
2022/10/24 09:18:53;;;;;;;0.20;0.20;;;;;;;16.36;65.48;100174.16;5079046;29;20054;-87
2022/10/24 09:21:24;;;;;;;0.68;0.68;;;;;;;16.43;65.86;100181.75;5080290;29;20035;-87
2022/10/24 09:23:55;;;;;;;0.63;0.40;;;;;;;16.44;65.11;100178.16;5062378;29;20035;-87
2022/10/24 09:26:29;;;;;;;0.35;0.35;;;;;;;16.50;64.49;100178.63;5063395;29;20098;-88
2022/10/24 09:29:00;;;;;;;1.75;0.95;;;;;;;16.43;64.76;100187.03;5110434;28;20043;-87
2022/10/24 09:31:30;;;;;;;0.20;0.20;;;;;;;16.46;64.21;100192.16;5110001;29;20425;-87
2022/10/24 09:34:02;;;;;;;0.30;0.30;;;;;;;16.49;64.34;100197.25;5108040;28;20118;-86
2022/10/24 09:36:33;;;;;;;0.23;0.23;;;;;;;16.46;65.04;100187.69;5112285;28;20504;-87
2022/10/24 09:39:33;;;;;;;0.65;0.65;;;;;;;16.46;64.43;100182.41;5109767;28;20367;-87
2022/10/24 09:42:03;;;;;;;0.38;0.38;;;;;;;16.49;64.27;100189.31;5080925;29;20036;-86
2022/10/24 09:44:40;;;;;;;0.40;0.30;;;;;;;16.48;64.65;100190.28;5114347;28;20059;-87
2022/10/24 09:47:24;;;;;;;3.30;1.42;;;;;;;16.52;64.82;100183.84;5117104;29;20087;-87
2022/10/24 09:49:55;;;;;;;27.02;1.88;;;;;;;16.62;64.69;100187.63;5065000;29;20135;-87
2022/10/24 09:52:28;;;;;;;0.30;0.30;;;;;;;16.72;63.98;100197.66;5115768;29;20162;-88
2022/10/24 09:55:19;;;;;;;0.45;0.45;;;;;;;16.75;64.53;100208.06;5113476;28;20071;-88
2022/10/24 09:57:55;;;;;;;0.20;0.20;;;;;;;16.74;63.95;100211.66;5114474;28;20051;-87
2022/10/24 10:00:29;;;;;;;5.68;1.38;;;;;;;16.77;63.54;100217.63;5083762;29;20289;-87
2022/10/24 10:03:04;;;;;;;8.75;1.35;;;;;;;16.84;64.14;100212.78;5095019;28;20047;-88
2022/10/24 10:05:56;;;;;;;0.88;0.55;;;;;;;16.83;63.91;100214.59;5113564;29;20035;-87
2022/10/24 10:08:32;;;;;;;7.10;1.85;;;;;;;16.89;63.40;100216.03;5113453;28;20354;-88
2022/10/24 10:11:03;;;;;;;0.20;0.20;;;;;;;16.90;64.11;100211.56;5099400;29;20687;-88
2022/10/24 10:13:53;;;;;;;0.55;0.50;;;;;;;16.81;64.36;100218.31;5098484;29;20044;-88
2022/10/24 10:16:27;;;;;;;1.08;0.88;;;;;;;16.81;64.29;100223.59;5099339;29;20401;-88
2022/10/24 10:19:03;;;;;;;0.30;0.30;;;;;;;16.83;63.81;100211.09;5114429;28;20032;-88
2022/10/24 10:21:54;;;;;;;1.10;0.85;;;;;;;16.83;63.93;100227.84;5109695;29;20063;-88
2022/10/24 10:24:42;;;;;;;1.15;0.82;;;;;;;16.87;64.07;100227.66;5131971;28;20042;-88
2022/10/24 10:27:39;;;;;;;0.55;0.55;;;;;;;16.87;64.65;100233.81;5114653;29;20062;-88
2022/10/24 10:30:13;;;;;;;1.85;0.82;;;;;;;17.01;64.13;100240.94;5111419;28;20036;-88
2022/10/24 10:32:56;;;;;;;0.30;0.30;;;;;;;16.86;63.76;100236.56;5130083;28;20035;-87
2022/10/24 10:35:31;;;;;;;0.20;0.20;;;;;;;16.90;63.88;100240.72;5099249;29;20126;-87
2022/10/24 10:38:19;;;;;;;1.38;1.10;;;;;;;16.91;63.90;100255.69;5065609;28;20051;-88
2022/10/24 10:41:10;;;;;;;0.22;0.22;;;;;;;16.94;64.27;100259.03;5100284;29;20109;-87
2022/10/24 10:43:49;;;;;;;0.30;0.30;;;;;;;17.01;64.48;100264.81;5097395;29;20059;-88
2022/10/24 10:46:37;;;;;;;0.20;0.20;;;;;;;17.04;63.26;100263.75;5066491;29;20032;-88
2022/10/24 10:49:19;;;;;;;0.77;0.50;;;;;;;17.06;64.23;100262.72;5095243;28;20047;-88
2022/10/24 10:51:55;;;;;;;0.40;0.40;;;;;;;17.07;63.52;100258.25;5098398;29;20035;-88
2022/10/24 10:54:32;;;;;;;0.20;0.20;;;;;;;17.19;63.36;100265.47;5081420;29;20288;-88
2022/10/24 10:57:10;;;;;;;0.35;0.35;;;;;;;17.18;63.85;100274.34;5084315;28;20362;-87
2022/10/24 10:59:57;;;;;;;0.20;0.20;;;;;;;17.12;63.39;100285.34;5112913;28;20055;-88
2022/10/24 11:02:50;;;;;;;1.20;1.10;;;;;;;17.10;63.57;100276.63;5082809;29;20039;-87
2022/10/24 11:05:24;;;;;;;0.20;0.20;;;;;;;17.06;62.92;100281.25;5143896;28;20039;-88
2022/10/24 11:08:07;;;;;;;5.57;1.60;;;;;;;17.12;62.50;100274.75;5129518;28;20027;-88
2022/10/24 11:10:43;;;;;;;0.40;0.40;;;;;;;17.14;63.65;100283.47;5120163;28;20039;-90
2022/10/24 11:13:22;;;;;;;0.35;0.35;;;;;;;17.14;62.54;100279.00;5116001;28;20042;-88
2022/10/24 11:15:58;;;;;;;0.50;0.50;;;;;;;17.15;62.67;100295.75;5132772;28;20027;-88
2022/10/24 11:18:33;;;;;;;0.43;0.43;;;;;;;17.17;63.58;100291.19;5111297;28;20372;-88
2022/10/24 11:21:13;;;;;;;1.42;0.85;;;;;;;17.21;63.54;100286.56;5097076;29;20046;-88
2022/10/24 11:24:14;;;;;;;0.30;0.30;;;;;;;17.16;62.67;100294.78;5095942;28;20580;-88
2022/10/24 11:27:13;;;;;;;0.20;0.20;;;;;;;17.18;63.27;100284.97;5113107;29;20044;-87
2022/10/24 11:29:57;;;;;;;0.20;0.20;;;;;;;17.12;63.25;100296.78;5077497;29;20039;-87
2022/10/24 11:32:48;;;;;;;0.30;0.30;;;;;;;17.13;62.67;100295.84;5096480;29;20035;-89
2022/10/24 11:35:28;;;;;;;0.85;0.85;;;;;;;17.10;63.36;100292.53;5095396;29;20043;-87
2022/10/24 11:38:19;;;;;;;0.25;0.25;;;;;;;17.15;63.94;100295.75;5066078;28;20392;-88
2022/10/24 11:40:56;;;;;;;0.20;0.20;;;;;;;17.19;63.76;100301.72;5096789;29;20036;-87
2022/10/24 11:43:35;;;;;;;0.20;0.20;;;;;;;17.24;63.47;100297.81;5095230;28;20043;-89
2022/10/24 11:46:27;;;;;;;0.50;0.50;;;;;;;17.21;63.71;100299.81;5097264;29;20473;-92
2022/10/24 11:49:08;;;;;;;0.20;0.20;;;;;;;17.22;63.82;100299.75;5110292;28;20055;-87
2022/10/24 11:51:46;;;;;;;0.73;0.73;;;;;;;17.28;62.60;100301.13;5115371;28;20079;-87
2022/10/24 11:54:30;;;;;;;1.45;1.35;;;;;;;17.29;63.15;100316.97;5114069;28;20342;-87
2022/10/24 11:57:07;;;;;;;0.22;0.22;;;;;;;17.25;63.47;100310.13;5099715;29;20158;-87
2022/10/24 11:59:37;;;;;;;10.63;0.73;;;;;;;17.29;63.80;100319.63;5116430;28;20255;-89
2022/10/24 12:02:30;;;;;;;0.20;0.20;;;;;;;17.28;63.25;100315.25;5113444;29;20042;-87